»·PEaware :: POST15 KGEG-KSEA

POST15 :: KGEG-KSEA

FLIGHT INFORMATION

Flight Status: Arrived
Operator: Unknown
More flights by this operator :: More flights under this callsign
Pilot: Conor O. (21625)
Aircraft: BEECH AIRCRAFT T-6A TEXAN
(TEX2)
More flights by this aircraft type
Origin: KGEG Spokane Intl
United States
Destination: KSEA Seattle-Tacoma Intl
United States
More flights between these airports :: More routes between these airports
Route: GEG GLASR1
File this flight plan on PilotEdge
Remarks: Rqst Spokane Six departure to EPH
Altitude:
(Current/Filed)
16,000ft
Speed:
(Current/Filed)
270kts
Departed: 04-Feb-21 07:28 AM
Arrived: 04-Feb-21 08:17 AM
Distance/Time
Traveled:
194nm/0:49
Distance/Time
To Go:
Arrived

Flight Plot

Page will automatically refresh every two minutes.

Flight plan parsing failed; only flown route is shown


Map Options




Map Legend


Flown Route
Filed Route
Departure Airport
Arrival Airport
Navaid (VOR, NDB)
Fix

Horizontal Profiles

Position Reports

Time Latitude Longitude Heading Altitude Ground
Speed
04-Feb-21 07:06 47.620428 -117.528554 359 2359ft 0kts
04-Feb-21 07:07 47.620428 -117.528554 359 2359ft 0kts
04-Feb-21 07:14 47.620428 -117.528554 359 2359ft 0kts
04-Feb-21 07:14 47.620428 -117.528554 359 2359ft 0kts
04-Feb-21 07:16 47.620428 -117.528554 359 2359ft 0kts
04-Feb-21 07:16 47.620428 -117.528554 359 2359ft 0kts
04-Feb-21 07:17 47.620428 -117.528554 359 2359ft 0kts
04-Feb-21 07:19 47.620428 -117.528554 359 2359ft 0kts
04-Feb-21 07:19 47.620428 -117.528554 359 2359ft 0kts
04-Feb-21 07:20 47.620428 -117.528554 359 2359ft 0kts
04-Feb-21 07:21 47.620428 -117.528554 359 2359ft 0kts
04-Feb-21 07:22 47.620461 -117.528553 2 2359ft 3kts
04-Feb-21 07:23 47.623129 -117.525342 359 2354ft 15kts
04-Feb-21 07:24 47.627657 -117.520128 44 2338ft 26kts
04-Feb-21 07:25 47.630260 -117.517091 316 2324ft 0kts
04-Feb-21 07:26 47.630264 -117.517097 315 2324ft 0kts
04-Feb-21 07:27 47.624928 -117.527967 226 2506ft 122kts
04-Feb-21 07:28 47.609989 -117.582341 273 5194ft 170kts
04-Feb-21 07:29 47.599021 -117.647850 235 8578ft 179kts
04-Feb-21 07:30 47.570260 -117.707247 255 11876ft 192kts
04-Feb-21 07:31 47.576792 -117.790624 277 13683ft 196kts
04-Feb-21 07:32 47.582214 -117.873986 275 15981ft 246kts
04-Feb-21 07:33 47.592057 -117.986654 278 16002ft 294kts
04-Feb-21 07:34 47.604252 -118.107555 279 16023ft 301kts
04-Feb-21 07:35 47.616617 -118.230325 279 16007ft 301kts
04-Feb-21 07:36 47.628281 -118.353353 277 16017ft 301kts
04-Feb-21 07:37 47.638669 -118.476487 277 15998ft 300kts
04-Feb-21 07:38 47.648149 -118.599576 277 16000ft 302kts
04-Feb-21 07:39 47.656300 -118.723103 276 16048ft 301kts
04-Feb-21 07:40 47.665115 -118.846665 278 15994ft 303kts
04-Feb-21 07:41 47.673909 -118.970539 274 15882ft 305kts
04-Feb-21 07:42 47.679825 -119.094719 279 16049ft 295kts
04-Feb-21 07:43 47.691926 -119.216854 278 15915ft 303kts
04-Feb-21 07:44 47.705607 -119.339439 281 15901ft 303kts
04-Feb-21 07:45 47.723239 -119.461656 282 15955ft 298kts
04-Feb-21 07:46 47.738272 -119.582823 276 16126ft 299kts
04-Feb-21 07:47 47.742559 -119.706811 272 16106ft 300kts
04-Feb-21 07:48 47.744223 -119.831647 270 15986ft 302kts
04-Feb-21 07:49 47.745423 -119.956217 273 16043ft 301kts
04-Feb-21 07:50 47.747585 -120.007212 274 15948ft 302kts
04-Feb-21 07:51 47.754103 -120.131892 274 15970ft 299kts
04-Feb-21 07:52 47.766305 -120.368969 274 16137ft 299kts
04-Feb-21 07:53 47.781255 -120.614399 276 16011ft 301kts
04-Feb-21 07:54 47.783203 -120.860665 267 16055ft 300kts
04-Feb-21 07:55 47.767539 -121.106155 265 16046ft 302kts
04-Feb-21 07:56 47.786135 -121.348844 284 16097ft 302kts
04-Feb-21 07:57 47.811649 -121.509252 286 14587ft 292kts
04-Feb-21 07:58 47.834407 -121.615943 290 11849ft 280kts
04-Feb-21 07:59 47.836229 -121.723430 264 8455ft 264kts
04-Feb-21 08:00 47.832053 -121.819794 266 6955ft 230kts
04-Feb-21 08:01 47.827342 -121.910222 266 5455ft 228kts
04-Feb-21 08:02 47.823242 -121.996572 269 5019ft 209kts
04-Feb-21 08:03 47.819535 -122.078138 268 5012ft 205kts
04-Feb-21 08:04 47.815693 -122.157949 266 4683ft 201kts
04-Feb-21 08:05 47.801572 -122.229239 216 4008ft 181kts
04-Feb-21 08:06 47.759655 -122.255310 210 4026ft 172kts
04-Feb-21 08:07 47.716774 -122.282579 206 4070ft 178kts
04-Feb-21 08:08 47.670310 -122.302477 188 4021ft 189kts
04-Feb-21 08:09 47.621155 -122.304239 187 3520ft 179kts
04-Feb-21 08:10 47.581112 -122.306727 183 2603ft 139kts
04-Feb-21 08:11 47.581112 -122.306727 183 2603ft 139kts
04-Feb-21 08:16 47.447237 -122.305148 0 398ft 0kts

Navigation Log

Ident Type
Flight plan parsing failed, navigation log unavailable